createdAt,value
2022-09-25T00:00:42.474Z,13.40
2022-09-25T00:01:44.048Z,13.50
2022-09-25T00:02:45.733Z,13.50
2022-09-25T00:03:48.004Z,13.50
2022-09-25T00:04:49.591Z,13.50
2022-09-25T00:05:51.691Z,13.50
2022-09-25T00:06:53.246Z,13.50
2022-09-25T00:07:56.402Z,13.60
2022-09-25T00:08:58.678Z,13.50
2022-09-25T00:10:00.376Z,13.50
2022-09-25T00:11:11.553Z,13.50
2022-09-25T00:12:13.104Z,13.50
2022-09-25T00:13:16.695Z,13.40
2022-09-25T00:14:18.249Z,13.40
2022-09-25T00:15:19.800Z,13.40
2022-09-25T00:16:24.082Z,13.40
2022-09-25T00:17:26.070Z,13.40
2022-09-25T00:18:46.242Z,13.50
2022-09-25T00:19:50.790Z,13.50
2022-09-25T00:21:01.169Z,13.40
2022-09-25T00:22:02.755Z,13.40
2022-09-25T00:23:04.313Z,13.30
2022-09-25T00:24:08.141Z,13.30
2022-09-25T00:25:14.389Z,13.30
2022-09-25T00:26:17.172Z,13.20
2022-09-25T00:27:19.242Z,13.20
2022-09-25T00:28:21.548Z,13.30
2022-09-25T00:29:23.092Z,13.40
2022-09-25T00:30:24.632Z,13.40
2022-09-25T00:31:26.261Z,13.50
2022-09-25T00:32:27.963Z,13.50
2022-09-25T00:33:30.065Z,13.50
2022-09-25T00:34:32.055Z,13.50
2022-09-25T00:35:33.864Z,13.50
2022-09-25T00:36:35.769Z,13.50
2022-09-25T00:37:37.567Z,13.50
2022-09-25T00:38:39.129Z,13.50
2022-09-25T00:39:40.685Z,13.40
2022-09-25T00:40:42.290Z,13.40
2022-09-25T00:41:44.108Z,13.40
2022-09-25T00:42:45.674Z,13.40
2022-09-25T00:43:50.575Z,13.40
2022-09-25T00:44:58.543Z,13.40
2022-09-25T00:46:02.808Z,13.40
2022-09-25T00:47:04.665Z,13.40
2022-09-25T00:48:10.618Z,13.40
2022-09-25T00:49:19.128Z,13.40
2022-09-25T00:50:57.870Z,13.40
2022-09-25T00:52:06.718Z,13.40
2022-09-25T00:53:21.937Z,13.40
2022-09-25T00:54:31.422Z,13.50
2022-09-25T00:55:34.074Z,13.50
2022-09-25T00:56:42.503Z,13.50
2022-09-25T00:57:48.456Z,13.50
2022-09-25T00:58:50.780Z,13.60
2022-09-25T00:59:55.583Z,13.60
2022-09-25T01:00:57.303Z,13.60
2022-09-25T01:01:59.375Z,13.60
2022-09-25T01:03:02.121Z,13.60
2022-09-25T01:04:03.894Z,13.60
2022-09-25T01:05:16.200Z,13.60
2022-09-25T01:06:18.653Z,13.60
2022-09-25T01:07:20.304Z,13.60
2022-09-25T01:08:26.030Z,13.60
2022-09-25T01:09:28.547Z,13.60
2022-09-25T01:10:30.171Z,13.60
2022-09-25T01:11:31.939Z,13.60
2022-09-25T01:12:38.704Z,13.60
2022-09-25T01:13:41.288Z,13.60
2022-09-25T01:14:43.545Z,13.50
2022-09-25T01:15:54.477Z,13.50
2022-09-25T01:17:02.102Z,13.50
2022-09-25T01:18:17.904Z,13.40
2022-09-25T01:19:44.198Z,13.40
2022-09-25T01:21:06.780Z,13.40
2022-09-25T01:22:27.229Z,13.50
2022-09-25T01:23:37.858Z,13.50
2022-09-25T01:25:13.978Z,13.60
2022-09-25T01:26:44.980Z,13.60
2022-09-25T01:28:04.475Z,13.50
2022-09-25T01:29:17.424Z,13.50
2022-09-25T01:30:20.598Z,13.50
2022-09-25T01:31:41.470Z,13.50
2022-09-25T01:33:06.129Z,13.50
2022-09-25T01:34:24.704Z,13.50
2022-09-25T01:35:37.689Z,13.50
2022-09-25T01:36:46.725Z,13.50
2022-09-25T01:38:15.163Z,13.50
2022-09-25T01:39:21.536Z,13.30
2022-09-25T01:40:56.382Z,13.30
2022-09-25T01:42:18.428Z,13.30
2022-09-25T01:43:36.216Z,13.30
2022-09-25T01:44:44.370Z,13.30
2022-09-25T01:45:54.551Z,13.30
2022-09-25T01:47:05.120Z,13.30
2022-09-25T01:48:10.603Z,13.30
2022-09-25T01:49:24.766Z,13.20
2022-09-25T01:50:44.795Z,13.20
2022-09-25T01:51:51.829Z,13.10
2022-09-25T01:52:58.422Z,13.10
2022-09-25T01:54:07.122Z,13.20
2022-09-25T01:55:16.550Z,13.20
2022-09-25T01:56:31.475Z,13.30
2022-09-25T01:57:40.140Z,13.20
2022-09-25T01:58:47.810Z,13.30
2022-09-25T02:00:09.747Z,13.30
2022-09-25T02:01:17.410Z,13.40
2022-09-25T02:02:23.660Z,13.40
2022-09-25T02:03:36.086Z,13.40
2022-09-25T02:04:56.962Z,13.40
2022-09-25T02:06:02.717Z,13.40
2022-09-25T02:07:09.504Z,13.40
2022-09-25T02:08:28.669Z,13.40
2022-09-25T02:09:53.357Z,13.40
2022-09-25T02:10:59.024Z,13.30
2022-09-25T02:12:11.430Z,13.30
2022-09-25T02:13:17.770Z,13.40
2022-09-25T02:14:28.051Z,13.30
2022-09-25T02:15:34.778Z,13.30
2022-09-25T02:16:43.617Z,13.40
2022-09-25T02:18:13.360Z,13.40
2022-09-25T02:19:34.832Z,13.40
2022-09-25T02:20:41.945Z,13.40
2022-09-25T02:22:04.393Z,13.40
2022-09-25T02:23:13.999Z,13.40
2022-09-25T02:24:59.266Z,13.40
2022-09-25T02:26:09.099Z,13.40
2022-09-25T02:27:11.251Z,13.40
2022-09-25T02:28:12.933Z,13.40
2022-09-25T02:29:15.433Z,13.40
2022-09-25T02:30:17.329Z,13.40
2022-09-25T02:31:20.409Z,13.30
2022-09-25T02:32:28.539Z,13.30
2022-09-25T02:33:30.316Z,13.30
2022-09-25T02:34:33.051Z,13.30
2022-09-25T02:35:34.638Z,13.30
2022-09-25T02:36:36.258Z,13.30
2022-09-25T02:37:37.841Z,13.30
2022-09-25T02:38:39.398Z,13.20
2022-09-25T02:39:42.357Z,13.20
2022-09-25T02:40:52.012Z,13.20
2022-09-25T02:41:59.540Z,13.20
2022-09-25T02:43:26.011Z,13.20
2022-09-25T02:44:45.583Z,13.20
2022-09-25T02:46:02.989Z,13.30
2022-09-25T02:47:35.949Z,13.30
2022-09-25T02:48:52.669Z,13.40
2022-09-25T02:50:05.512Z,13.40
2022-09-25T02:51:31.737Z,13.40
2022-09-25T02:52:35.807Z,13.50
2022-09-25T02:53:48.581Z,13.50
2022-09-25T02:54:56.138Z,13.40
2022-09-25T02:56:06.300Z,13.50
2022-09-25T02:57:36.648Z,13.40
2022-09-25T02:58:54.911Z,13.40
2022-09-25T03:00:00.465Z,13.50
2022-09-25T03:01:06.746Z,13.50
2022-09-25T03:02:10.599Z,13.50
2022-09-25T03:03:14.940Z,13.50
2022-09-25T03:04:19.196Z,13.50
2022-09-25T03:05:21.599Z,13.50
2022-09-25T03:06:24.955Z,13.50
2022-09-25T03:07:26.837Z,13.40
2022-09-25T03:08:38.274Z,13.40
2022-09-25T03:09:46.775Z,13.30
2022-09-25T03:10:48.551Z,13.40
2022-09-25T03:11:50.122Z,13.40
2022-09-25T03:12:51.672Z,13.40
2022-09-25T03:14:01.267Z,13.30
2022-09-25T03:15:02.906Z,13.30
2022-09-25T03:16:09.077Z,13.40
2022-09-25T03:17:13.468Z,13.40
2022-09-25T03:18:15.137Z,13.40
2022-09-25T03:19:19.677Z,13.40
2022-09-25T03:20:21.242Z,13.40
2022-09-25T03:21:22.910Z,13.30
2022-09-25T03:22:24.455Z,13.30
2022-09-25T03:23:26.279Z,13.30
2022-09-25T03:24:27.817Z,13.30
2022-09-25T03:25:29.425Z,13.20
2022-09-25T03:26:31.385Z,13.20
2022-09-25T03:27:33.005Z,13.10
2022-09-25T03:28:35.117Z,13.10
2022-09-25T03:29:36.689Z,13.10
2022-09-25T03:30:40.798Z,13.10
2022-09-25T03:31:43.054Z,13.20
2022-09-25T03:32:44.625Z,13.20
2022-09-25T03:33:47.700Z,13.20
2022-09-25T03:34:49.525Z,13.20
2022-09-25T03:36:09.412Z,13.10
2022-09-25T03:37:11.023Z,13.20
2022-09-25T03:38:12.590Z,13.20
2022-09-25T03:39:17.826Z,13.20
2022-09-25T03:40:20.372Z,13.10
2022-09-25T03:41:22.549Z,13.20
2022-09-25T03:42:27.561Z,13.20
2022-09-25T03:43:31.727Z,13.20
2022-09-25T03:44:33.306Z,13.20
2022-09-25T03:45:34.958Z,13.10
2022-09-25T03:46:36.639Z,13.10
2022-09-25T03:47:38.400Z,13.20
2022-09-25T03:48:40.907Z,13.20
2022-09-25T03:49:42.459Z,13.20
2022-09-25T03:50:45.718Z,13.30
2022-09-25T03:51:47.263Z,13.20
2022-09-25T03:52:48.841Z,13.10
2022-09-25T03:53:51.142Z,13.10
2022-09-25T03:54:52.768Z,13.20
2022-09-25T03:55:54.340Z,13.20
2022-09-25T03:56:55.894Z,13.10
2022-09-25T03:57:57.625Z,13.10
2022-09-25T03:58:59.318Z,13.10
2022-09-25T04:00:03.565Z,13.10
2022-09-25T04:01:06.368Z,13.10
2022-09-25T04:02:08.640Z,13.10
2022-09-25T04:03:10.353Z,13.00
2022-09-25T04:04:12.097Z,13.00
2022-09-25T04:05:13.838Z,13.00
2022-09-25T04:06:20.437Z,13.00
2022-09-25T04:07:22.869Z,13.00
2022-09-25T04:08:27.020Z,13.00
2022-09-25T04:09:28.697Z,13.00
2022-09-25T04:10:30.656Z,13.10
2022-09-25T04:11:32.196Z,13.10
2022-09-25T04:12:33.823Z,13.10
2022-09-25T04:13:42.049Z,13.10
2022-09-25T04:14:45.192Z,13.20
2022-09-25T04:15:46.880Z,13.20
2022-09-25T04:16:48.507Z,13.20
2022-09-25T04:17:51.346Z,13.20
2022-09-25T04:18:52.937Z,13.20
2022-09-25T04:19:54.705Z,13.30
2022-09-25T04:20:56.277Z,13.30
2022-09-25T04:21:57.840Z,13.30
2022-09-25T04:22:59.386Z,13.30
2022-09-25T04:24:19.620Z,13.30
2022-09-25T04:25:24.651Z,13.30
2022-09-25T04:26:26.277Z,13.30
2022-09-25T04:27:27.828Z,13.30
2022-09-25T04:28:31.534Z,13.30
2022-09-25T04:29:33.836Z,13.30
2022-09-25T04:30:35.596Z,13.40
2022-09-25T04:31:37.204Z,13.40
2022-09-25T04:32:57.786Z,13.40
2022-09-25T04:33:59.803Z,13.40
2022-09-25T04:35:01.999Z,13.40
2022-09-25T04:36:04.194Z,13.40
2022-09-25T04:37:05.748Z,13.40
2022-09-25T04:38:07.921Z,13.50
2022-09-25T04:39:10.135Z,13.40
2022-09-25T04:40:11.803Z,13.40
2022-09-25T04:41:16.485Z,13.40
2022-09-25T04:42:18.097Z,13.40
2022-09-25T04:43:19.681Z,13.40
2022-09-25T04:44:21.257Z,13.40
2022-09-25T04:45:22.847Z,13.40
2022-09-25T04:46:24.429Z,13.40
2022-09-25T04:47:30.052Z,13.40
2022-09-25T04:48:32.271Z,13.40
2022-09-25T04:49:33.840Z,13.40
2022-09-25T04:50:36.084Z,13.50
2022-09-25T04:51:37.636Z,13.50
2022-09-25T04:52:39.205Z,13.50
2022-09-25T04:53:40.877Z,13.50
2022-09-25T04:54:43.237Z,13.50
2022-09-25T04:55:46.207Z,13.50
2022-09-25T04:56:47.753Z,13.50
2022-09-25T04:57:58.770Z,13.50
2022-09-25T04:59:00.777Z,13.50
2022-09-25T05:00:02.533Z,13.50
2022-09-25T05:01:06.809Z,13.50
2022-09-25T05:02:08.709Z,13.50
2022-09-25T05:03:10.490Z,13.50
2022-09-25T05:04:12.396Z,13.50
2022-09-25T05:05:15.169Z,13.60
2022-09-25T05:06:16.777Z,13.50
2022-09-25T05:07:18.384Z,13.50
2022-09-25T05:08:20.158Z,13.60
2022-09-25T05:10:27.662Z,13.60
2022-09-25T05:11:29.416Z,13.50
2022-09-25T05:12:30.956Z,13.60
2022-09-25T05:13:32.508Z,13.50
2022-09-25T05:14:34.878Z,13.50
2022-09-25T05:15:36.423Z,13.50
2022-09-25T05:16:38.104Z,13.40
2022-09-25T05:17:39.723Z,13.40
2022-09-25T05:18:41.260Z,13.40
2022-09-25T05:19:42.788Z,13.40
2022-09-25T05:20:44.940Z,13.30
2022-09-25T05:21:46.591Z,13.40
2022-09-25T05:22:48.196Z,13.40
2022-09-25T05:23:50.435Z,13.40
2022-09-25T05:24:58.623Z,13.40
2022-09-25T05:26:02.096Z,13.40
2022-09-25T05:27:03.963Z,13.40
2022-09-25T05:28:05.594Z,13.40
2022-09-25T05:29:07.296Z,13.40
2022-09-25T05:30:11.137Z,13.40
2022-09-25T05:31:12.899Z,13.40
2022-09-25T05:32:14.540Z,13.50
2022-09-25T05:33:16.103Z,13.50
2022-09-25T05:34:17.650Z,13.50
2022-09-25T05:35:21.642Z,13.40
2022-09-25T05:36:23.439Z,13.40
2022-09-25T05:37:25.012Z,13.50
2022-09-25T05:38:26.566Z,13.50
2022-09-25T05:39:28.159Z,13.50
2022-09-25T05:40:29.841Z,13.50
2022-09-25T05:41:33.560Z,13.60
2022-09-25T05:42:35.142Z,13.60
2022-09-25T05:43:46.649Z,13.60
2022-09-25T05:44:48.560Z,13.60
2022-09-25T05:45:54.717Z,13.60
2022-09-25T05:46:56.500Z,13.60
2022-09-25T05:48:06.651Z,13.60
2022-09-25T05:49:08.276Z,13.60
2022-09-25T05:50:12.372Z,13.50
2022-09-25T05:51:13.925Z,13.50
2022-09-25T05:52:15.475Z,13.50
2022-09-25T05:53:17.047Z,13.50
2022-09-25T05:54:18.579Z,13.60
2022-09-25T05:55:20.112Z,13.60
2022-09-25T05:56:23.523Z,13.60
2022-09-25T05:57:25.111Z,13.60
2022-09-25T05:58:28.250Z,13.60
2022-09-25T05:59:29.875Z,13.60
2022-09-25T06:00:32.994Z,13.60
2022-09-25T06:01:34.793Z,13.50
2022-09-25T06:02:36.475Z,13.50
2022-09-25T06:03:38.257Z,13.50
2022-09-25T06:04:39.905Z,13.60
2022-09-25T06:05:41.813Z,13.60
2022-09-25T06:06:43.370Z,13.60
2022-09-25T06:07:44.970Z,13.60
2022-09-25T06:08:46.637Z,13.70
2022-09-25T06:09:48.230Z,13.70
2022-09-25T06:10:55.664Z,13.60
2022-09-25T06:11:57.255Z,13.70
2022-09-25T06:13:00.115Z,13.70
2022-09-25T06:14:02.882Z,13.60
2022-09-25T06:15:04.963Z,13.60
2022-09-25T06:16:14.329Z,13.60
2022-09-25T06:17:15.983Z,13.60
2022-09-25T06:18:18.473Z,13.60
2022-09-25T06:19:20.881Z,13.60
2022-09-25T06:20:22.765Z,13.60
2022-09-25T06:21:24.347Z,13.50
2022-09-25T06:22:25.913Z,13.60
2022-09-25T06:23:27.632Z,13.50
2022-09-25T06:24:29.189Z,13.50
2022-09-25T06:25:36.333Z,13.50
2022-09-25T06:26:38.082Z,13.40
2022-09-25T06:27:40.496Z,13.40
2022-09-25T06:28:42.080Z,13.30
2022-09-25T06:29:43.721Z,13.30
2022-09-25T06:30:45.421Z,13.30
2022-09-25T06:31:47.108Z,13.20
2022-09-25T06:32:50.851Z,13.20
2022-09-25T06:33:52.429Z,13.20
2022-09-25T06:34:54.004Z,13.20
2022-09-25T06:35:55.562Z,13.20
2022-09-25T06:36:57.161Z,13.30
2022-09-25T06:37:59.895Z,13.30
2022-09-25T06:39:01.734Z,13.30
2022-09-25T06:40:03.442Z,13.30
2022-09-25T06:41:05.120Z,13.20
2022-09-25T06:42:06.763Z,13.20
2022-09-25T06:43:13.606Z,13.20
2022-09-25T06:44:15.190Z,13.30
2022-09-25T06:45:16.789Z,13.30
2022-09-25T06:46:20.549Z,13.30
2022-09-25T06:47:26.637Z,13.40
2022-09-25T06:48:29.393Z,13.40
2022-09-25T06:49:30.940Z,13.30
2022-09-25T06:50:46.177Z,13.40
2022-09-25T06:51:47.831Z,13.50
2022-09-25T06:52:49.415Z,13.60
2022-09-25T06:53:54.540Z,13.60
2022-09-25T06:54:56.211Z,13.60
2022-09-25T06:55:59.694Z,13.70
2022-09-25T06:57:01.259Z,13.70
2022-09-25T06:58:04.271Z,13.80
2022-09-25T06:59:05.813Z,13.80
2022-09-25T07:00:08.124Z,13.70
2022-09-25T07:01:11.729Z,13.70
2022-09-25T07:02:31.978Z,13.70
2022-09-25T07:03:45.739Z,13.80
2022-09-25T07:04:51.315Z,13.70
2022-09-25T07:05:52.962Z,13.60
2022-09-25T07:06:58.441Z,13.60
2022-09-25T07:08:00.004Z,13.70
2022-09-25T07:09:03.806Z,13.80
2022-09-25T07:10:05.885Z,13.70
2022-09-25T07:11:07.499Z,13.70
2022-09-25T07:12:11.229Z,13.70
2022-09-25T07:13:12.790Z,13.60
2022-09-25T07:14:14.316Z,13.60
2022-09-25T07:15:15.932Z,13.60
2022-09-25T07:16:19.724Z,13.60
2022-09-25T07:17:21.436Z,13.60
2022-09-25T07:18:24.546Z,13.60
2022-09-25T07:19:27.848Z,13.60
2022-09-25T07:20:30.078Z,13.60
2022-09-25T07:21:32.271Z,13.60
2022-09-25T07:22:34.073Z,13.70
2022-09-25T07:23:36.401Z,13.70
2022-09-25T07:24:38.912Z,13.70
2022-09-25T07:25:40.838Z,13.60
2022-09-25T07:26:43.387Z,13.60
2022-09-25T07:27:45.737Z,13.60
2022-09-25T07:28:47.884Z,13.60
2022-09-25T07:29:49.419Z,13.60
2022-09-25T07:30:51.104Z,13.60
2022-09-25T07:31:52.705Z,13.50
2022-09-25T07:32:59.793Z,13.60
2022-09-25T07:34:08.796Z,13.60
2022-09-25T07:35:10.954Z,13.60
2022-09-25T07:36:13.574Z,13.70
2022-09-25T07:37:15.119Z,13.70
2022-09-25T07:38:16.702Z,13.80
2022-09-25T07:39:18.833Z,13.80
2022-09-25T07:40:20.599Z,13.80
2022-09-25T07:41:22.887Z,13.90
2022-09-25T07:42:24.749Z,13.90
2022-09-25T07:43:27.140Z,13.80
2022-09-25T07:44:31.419Z,13.80
2022-09-25T07:45:35.787Z,13.90
2022-09-25T07:46:42.751Z,13.90
2022-09-25T07:47:44.317Z,13.90
2022-09-25T07:48:49.314Z,13.90
2022-09-25T07:49:50.861Z,14.00
2022-09-25T07:50:52.878Z,14.00
2022-09-25T07:51:54.666Z,14.00
2022-09-25T07:52:56.367Z,14.00
2022-09-25T07:53:58.352Z,14.00
2022-09-25T07:54:59.908Z,13.90
2022-09-25T07:56:06.663Z,13.90
2022-09-25T07:57:09.187Z,14.00
2022-09-25T07:58:11.826Z,13.90
2022-09-25T07:59:13.482Z,14.00
2022-09-25T08:00:15.170Z,14.10
2022-09-25T08:01:16.782Z,14.00
2022-09-25T08:02:18.530Z,14.00
2022-09-25T08:03:21.258Z,14.00
2022-09-25T08:04:22.882Z,14.00
2022-09-25T08:05:25.680Z,14.10
2022-09-25T08:06:27.241Z,14.10
2022-09-25T08:07:29.007Z,14.10
2022-09-25T08:08:31.421Z,14.00
2022-09-25T08:09:33.217Z,14.00
2022-09-25T08:10:34.756Z,14.00
2022-09-25T08:11:36.747Z,14.00
2022-09-25T08:12:40.829Z,14.00
2022-09-25T08:13:42.792Z,14.00
2022-09-25T08:14:44.353Z,14.00
2022-09-25T08:15:45.951Z,14.00
2022-09-25T08:16:48.186Z,13.90
2022-09-25T08:17:49.766Z,13.90
2022-09-25T08:18:53.118Z,13.90
2022-09-25T08:19:54.732Z,13.90
2022-09-25T08:21:04.307Z,14.00
2022-09-25T08:22:05.943Z,14.00
2022-09-25T08:23:08.268Z,14.10
2022-09-25T08:24:10.884Z,14.10
2022-09-25T08:25:13.002Z,14.10
2022-09-25T08:26:15.195Z,14.20
2022-09-25T08:27:16.753Z,14.20
2022-09-25T08:28:18.648Z,14.20
2022-09-25T08:29:20.206Z,14.20
2022-09-25T08:30:21.912Z,14.10
2022-09-25T08:31:23.571Z,14.10
2022-09-25T08:32:25.247Z,14.20
2022-09-25T08:33:27.047Z,14.10
2022-09-25T08:34:40.650Z,14.10
2022-09-25T08:35:43.513Z,14.10
2022-09-25T08:36:47.715Z,14.20
2022-09-25T08:37:49.289Z,14.10
2022-09-25T08:38:56.383Z,14.10
2022-09-25T08:39:59.771Z,14.20
2022-09-25T08:41:12.631Z,14.10
2022-09-25T08:42:21.058Z,14.10
2022-09-25T08:43:25.560Z,14.10
2022-09-25T08:44:36.108Z,14.10
2022-09-25T08:46:03.101Z,14.10
2022-09-25T08:47:43.571Z,14.20
2022-09-25T08:49:06.517Z,14.20
2022-09-25T08:50:21.780Z,14.20
2022-09-25T08:51:23.760Z,14.30
2022-09-25T08:52:25.558Z,14.40
2022-09-25T08:53:27.331Z,14.30
2022-09-25T08:54:31.757Z,14.30
2022-09-25T08:56:04.838Z,14.30
2022-09-25T08:57:29.350Z,14.30
2022-09-25T08:58:33.755Z,14.30
2022-09-25T08:59:38.567Z,14.30
2022-09-25T09:00:40.331Z,14.30
2022-09-25T09:01:49.824Z,14.30
2022-09-25T09:02:57.874Z,14.40
2022-09-25T09:04:23.861Z,14.40
2022-09-25T09:05:37.290Z,14.40
2022-09-25T09:06:41.767Z,14.30
2022-09-25T09:07:46.917Z,14.30
2022-09-25T09:08:58.298Z,14.30
2022-09-25T09:10:34.855Z,14.40
2022-09-25T09:11:42.665Z,14.40
2022-09-25T09:12:48.272Z,14.50
2022-09-25T09:13:54.949Z,14.50
2022-09-25T09:15:15.082Z,14.60
2022-09-25T09:16:25.841Z,14.60
2022-09-25T09:17:28.245Z,14.60
2022-09-25T09:18:32.609Z,14.60
2022-09-25T09:19:34.262Z,14.70
2022-09-25T09:20:56.158Z,14.70
2022-09-25T09:22:05.459Z,14.70
2022-09-25T09:23:13.392Z,14.70
2022-09-25T09:24:23.857Z,14.80
2022-09-25T09:25:51.403Z,14.80
2022-09-25T09:27:21.224Z,14.90
2022-09-25T09:28:38.104Z,14.80
2022-09-25T09:29:58.465Z,14.70
2022-09-25T09:31:23.291Z,14.60
2022-09-25T09:32:35.435Z,14.50
2022-09-25T09:33:59.986Z,14.50
2022-09-25T09:35:34.643Z,14.50
2022-09-25T09:36:41.069Z,14.40
2022-09-25T09:38:15.091Z,14.40
2022-09-25T09:39:38.289Z,14.50
2022-09-25T09:40:49.158Z,14.50
2022-09-25T09:42:12.355Z,14.50
2022-09-25T09:43:23.115Z,14.50
2022-09-25T09:44:53.377Z,14.50
2022-09-25T09:46:05.203Z,14.60
2022-09-25T09:47:42.345Z,14.50
2022-09-25T09:48:56.609Z,14.50
2022-09-25T09:50:41.843Z,14.50
2022-09-25T09:52:08.598Z,14.50
2022-09-25T09:53:51.474Z,14.60
2022-09-25T09:55:15.846Z,14.60
2022-09-25T09:56:28.944Z,14.60
2022-09-25T09:57:37.516Z,14.60
2022-09-25T09:58:45.809Z,14.60
2022-09-25T09:59:58.377Z,14.60
2022-09-25T10:01:16.286Z,14.60
2022-09-25T10:02:53.081Z,14.60
2022-09-25T10:04:10.306Z,14.60
2022-09-25T10:05:23.381Z,14.50
2022-09-25T10:06:27.378Z,14.40
2022-09-25T10:07:31.170Z,14.40
2022-09-25T10:08:32.731Z,14.50
2022-09-25T10:09:34.274Z,14.60
2022-09-25T10:10:44.573Z,14.60
2022-09-25T10:11:54.154Z,14.60
2022-09-25T10:12:55.977Z,14.60
2022-09-25T10:13:59.908Z,14.60
2022-09-25T10:15:13.566Z,14.70
2022-09-25T10:16:18.035Z,14.60
2022-09-25T10:17:24.104Z,14.60
2022-09-25T10:18:31.689Z,14.70
2022-09-25T10:20:06.077Z,14.60
2022-09-25T10:21:15.077Z,14.70
2022-09-25T10:22:20.810Z,14.70
2022-09-25T10:23:35.908Z,14.80
2022-09-25T10:24:54.973Z,14.80
2022-09-25T10:25:56.567Z,14.80
2022-09-25T10:27:20.575Z,14.80
2022-09-25T10:28:27.166Z,14.80
2022-09-25T10:29:29.637Z,14.70
2022-09-25T10:30:31.225Z,14.70
2022-09-25T10:31:36.107Z,14.70
2022-09-25T10:32:56.450Z,14.80
2022-09-25T10:34:03.791Z,14.90
2022-09-25T10:35:06.068Z,14.90
2022-09-25T10:36:07.768Z,14.90
2022-09-25T10:37:21.051Z,15.00
2022-09-25T10:38:43.465Z,15.00
2022-09-25T10:40:04.096Z,15.00
2022-09-25T10:41:12.086Z,15.10
2022-09-25T10:42:41.479Z,15.00
2022-09-25T10:43:55.441Z,15.00
2022-09-25T10:44:58.070Z,15.00
2022-09-25T10:46:07.435Z,15.10
2022-09-25T10:47:36.669Z,15.00
2022-09-25T10:48:57.846Z,15.00
2022-09-25T10:50:12.583Z,14.90
2022-09-25T10:51:17.317Z,15.00
2022-09-25T10:52:19.766Z,15.00
2022-09-25T10:53:30.228Z,15.00
2022-09-25T10:54:32.673Z,15.00
2022-09-25T10:55:44.800Z,15.00
2022-09-25T10:56:46.390Z,15.10
2022-09-25T10:57:48.603Z,15.20
2022-09-25T10:59:01.881Z,15.30
2022-09-25T11:00:09.661Z,15.30
2022-09-25T11:01:13.767Z,15.30
2022-09-25T11:02:37.956Z,15.30
2022-09-25T11:03:51.402Z,15.20
2022-09-25T11:04:55.713Z,15.30
2022-09-25T11:06:01.243Z,15.30
2022-09-25T11:07:07.204Z,15.30
2022-09-25T11:08:09.212Z,15.30
2022-09-25T11:09:17.580Z,15.30
2022-09-25T11:10:21.999Z,15.30
2022-09-25T11:11:26.767Z,15.30
2022-09-25T11:12:32.444Z,15.20
2022-09-25T11:13:47.570Z,15.20
2022-09-25T11:14:59.032Z,15.10
2022-09-25T11:16:01.945Z,15.10
2022-09-25T11:17:10.079Z,15.20
2022-09-25T11:18:49.785Z,15.20
2022-09-25T11:20:22.521Z,15.20
2022-09-25T11:21:30.752Z,15.30
2022-09-25T11:22:36.682Z,15.30
2022-09-25T11:24:02.647Z,15.30
2022-09-25T11:25:22.672Z,15.20
2022-09-25T11:26:32.324Z,15.30
2022-09-25T11:27:43.707Z,15.30
2022-09-25T11:29:22.636Z,15.40
2022-09-25T11:30:25.370Z,15.50
2022-09-25T11:31:35.473Z,15.60
2022-09-25T11:32:58.547Z,15.60
2022-09-25T11:34:42.977Z,15.70
2022-09-25T11:36:04.182Z,15.80
2022-09-25T11:37:34.978Z,15.80
2022-09-25T11:39:09.746Z,15.90
2022-09-25T11:40:39.205Z,15.90
2022-09-25T11:42:00.844Z,15.90
2022-09-25T11:43:11.389Z,15.70
2022-09-25T11:44:37.241Z,15.70
2022-09-25T11:45:54.253Z,15.70
2022-09-25T11:47:28.138Z,15.60
2022-09-25T11:48:55.400Z,15.50
2022-09-25T11:49:59.263Z,15.50
2022-09-25T11:51:29.043Z,15.60
2022-09-25T11:53:01.784Z,15.60
2022-09-25T11:54:32.817Z,15.50
2022-09-25T11:55:47.212Z,15.50
2022-09-25T11:57:17.424Z,15.50
2022-09-25T11:58:44.117Z,15.50
2022-09-25T11:59:57.090Z,15.40
2022-09-25T12:01:28.011Z,15.50
2022-09-25T12:02:32.516Z,15.50
2022-09-25T12:03:51.256Z,15.50
2022-09-25T12:05:48.041Z,15.50
2022-09-25T12:07:08.662Z,15.60
2022-09-25T12:08:28.313Z,15.50
2022-09-25T12:09:47.958Z,15.50
2022-09-25T12:11:04.508Z,15.50
2022-09-25T12:12:26.272Z,15.50
2022-09-25T12:13:44.857Z,15.50
2022-09-25T12:15:24.093Z,15.50
2022-09-25T12:16:36.996Z,15.50
2022-09-25T12:17:53.807Z,15.50
2022-09-25T12:19:23.629Z,15.40
2022-09-25T12:20:50.339Z,15.50
2022-09-25T12:22:30.287Z,15.40
2022-09-25T12:23:36.144Z,15.50
2022-09-25T12:24:53.045Z,15.50
2022-09-25T12:26:27.503Z,15.50
2022-09-25T12:28:19.502Z,15.50
2022-09-25T12:29:46.285Z,15.40
2022-09-25T12:30:56.020Z,15.40
2022-09-25T12:32:21.273Z,15.40
2022-09-25T12:33:50.431Z,15.40
2022-09-25T12:35:15.000Z,15.40
2022-09-25T12:36:27.919Z,15.40
2022-09-25T12:37:43.341Z,15.50
2022-09-25T12:39:05.188Z,15.50
2022-09-25T12:40:17.420Z,15.60
2022-09-25T12:41:29.928Z,15.50
2022-09-25T12:42:56.566Z,15.50
2022-09-25T12:44:02.127Z,15.60
2022-09-25T12:45:18.127Z,15.80
2022-09-25T12:46:39.024Z,15.80
2022-09-25T12:47:47.264Z,15.80
2022-09-25T12:48:54.321Z,15.90
2022-09-25T12:50:19.053Z,15.90
2022-09-25T12:51:51.458Z,15.90
2022-09-25T12:53:05.290Z,15.90
2022-09-25T12:54:32.429Z,15.90
2022-09-25T12:55:43.292Z,15.90
2022-09-25T12:57:17.096Z,16.00
2022-09-25T12:58:32.729Z,16.10
2022-09-25T12:59:53.037Z,16.10
2022-09-25T13:01:16.730Z,16.20
2022-09-25T13:02:30.171Z,16.30
2022-09-25T13:03:46.117Z,16.30
2022-09-25T13:05:05.109Z,16.30
2022-09-25T13:06:20.298Z,16.30
2022-09-25T13:07:23.425Z,16.40
2022-09-25T13:08:37.274Z,16.30
2022-09-25T13:09:48.799Z,16.40
2022-09-25T13:11:24.053Z,16.40
2022-09-25T13:12:37.226Z,16.40
2022-09-25T13:13:50.743Z,16.50
2022-09-25T13:14:56.342Z,16.50
2022-09-25T13:16:00.520Z,16.50
2022-09-25T13:17:03.231Z,16.60
2022-09-25T13:18:12.243Z,16.60
2022-09-25T13:19:28.706Z,16.60
2022-09-25T13:20:33.696Z,16.60
2022-09-25T13:21:44.006Z,16.60
2022-09-25T13:22:45.651Z,16.60
2022-09-25T13:23:51.264Z,16.50
2022-09-25T13:25:03.778Z,16.50
2022-09-25T13:26:16.256Z,16.60
2022-09-25T13:27:22.497Z,16.70
2022-09-25T13:28:27.898Z,16.80
2022-09-25T13:29:36.365Z,17.00
2022-09-25T13:30:37.998Z,17.10
2022-09-25T13:31:44.636Z,17.20
2022-09-25T13:32:56.041Z,17.30
2022-09-25T13:34:05.609Z,17.40
2022-09-25T13:35:19.760Z,17.40
2022-09-25T13:36:25.253Z,17.20
2022-09-25T13:37:34.171Z,17.30
2022-09-25T13:38:59.746Z,17.50
2022-09-25T13:40:26.468Z,17.70
2022-09-25T13:41:29.888Z,18.10
2022-09-25T13:42:46.287Z,18.20
2022-09-25T13:43:49.076Z,18.50
2022-09-25T13:44:56.557Z,18.50
2022-09-25T13:46:17.752Z,18.60
2022-09-25T13:47:24.955Z,18.70
2022-09-25T13:48:34.482Z,18.60
2022-09-25T13:49:36.285Z,18.50
2022-09-25T13:50:42.994Z,18.50
2022-09-25T13:51:45.120Z,18.60
2022-09-25T13:52:46.666Z,18.60
2022-09-25T13:54:11.549Z,18.60
2022-09-25T13:55:21.036Z,18.60
2022-09-25T13:56:24.742Z,18.60
2022-09-25T13:57:55.771Z,18.60
2022-09-25T13:59:03.071Z,18.50
2022-09-25T14:00:06.033Z,18.40
2022-09-25T14:01:32.363Z,18.20
2022-09-25T14:02:41.941Z,18.10
2022-09-25T14:03:48.198Z,18.00
2022-09-25T14:04:50.222Z,18.00
2022-09-25T14:05:51.811Z,17.90
2022-09-25T14:07:03.387Z,17.90
2022-09-25T14:08:12.537Z,17.80
2022-09-25T14:09:17.616Z,17.80
2022-09-25T14:10:19.403Z,17.80
2022-09-25T14:11:27.455Z,17.90
2022-09-25T14:12:42.874Z,17.80
2022-09-25T14:13:46.697Z,17.80
2022-09-25T14:14:55.905Z,17.80
2022-09-25T14:16:00.542Z,17.90
2022-09-25T14:17:04.233Z,17.80
2022-09-25T14:18:16.564Z,17.70
2022-09-25T14:19:29.311Z,17.60
2022-09-25T14:20:56.542Z,17.50
2022-09-25T14:22:00.327Z,17.50
2022-09-25T14:23:13.900Z,17.50
2022-09-25T14:24:24.345Z,17.40
2022-09-25T14:25:33.171Z,17.40
2022-09-25T14:26:34.800Z,17.40
2022-09-25T14:27:36.333Z,17.40
2022-09-25T14:28:46.082Z,17.40
2022-09-25T14:29:47.654Z,17.40
2022-09-25T14:31:09.398Z,17.30
2022-09-25T14:32:54.518Z,17.40
2022-09-25T14:34:20.802Z,17.30
2022-09-25T14:35:53.733Z,17.30
2022-09-25T14:37:08.150Z,17.10
2022-09-25T14:38:37.635Z,17.10
2022-09-25T14:39:51.126Z,17.00
2022-09-25T14:41:22.065Z,16.90
2022-09-25T14:42:40.798Z,16.80
2022-09-25T14:44:09.832Z,16.70
2022-09-25T14:45:37.056Z,16.70
2022-09-25T14:46:38.738Z,16.70
2022-09-25T14:47:44.575Z,16.70